sensor_id;sensor_type;location;lat;lon;timestamp;pressure;altitude;pressure_sealevel;temperature;humidity
7168;BME280;3625;51.762;14.320;2023-07-31T00:02:14;100325.56;;;14.90;100.00
7168;BME280;3625;51.762;14.320;2023-07-31T00:04:42;100323.72;;;14.92;100.00
7168;BME280;3625;51.762;14.320;2023-07-31T00:07:11;100302.19;;;14.76;100.00
7168;BME280;3625;51.762;14.320;2023-07-31T00:09:40;100323.19;;;14.84;100.00
7168;BME280;3625;51.762;14.320;2023-07-31T00:12:09;100318.03;;;14.79;100.00
7168;BME280;3625;51.762;14.320;2023-07-31T00:14:37;100319.91;;;14.77;100.00
7168;BME280;3625;51.762;14.320;2023-07-31T00:17:07;100298.22;;;14.64;100.00
7168;BME280;3625;51.762;14.320;2023-07-31T00:19:36;100316.53;;;14.72;100.00
7168;BME280;3625;51.762;14.320;2023-07-31T00:22:05;100303.75;;;14.60;100.00
7168;BME280;3625;51.762;14.320;2023-07-31T00:24:33;100314.09;;;14.67;100.00
7168;BME280;3625;51.762;14.320;2023-07-31T00:27:02;100318.72;;;14.62;100.00
7168;BME280;3625;51.762;14.320;2023-07-31T00:29:31;100309.13;;;14.58;100.00
7168;BME280;3625;51.762;14.320;2023-07-31T00:31:59;100310.13;;;14.56;100.00
7168;BME280;3625;51.762;14.320;2023-07-31T00:34:29;100296.56;;;14.40;100.00
7168;BME280;3625;51.762;14.320;2023-07-31T00:36:57;100310.44;;;14.48;100.00
7168;BME280;3625;51.762;14.320;2023-07-31T00:39:26;100309.56;;;14.48;100.00
7168;BME280;3625;51.762;14.320;2023-07-31T00:41:57;100314.09;;;14.46;100.00
7168;BME280;3625;51.762;14.320;2023-07-31T00:44:25;100306.19;;;14.44;100.00
7168;BME280;3625;51.762;14.320;2023-07-31T00:46:54;100302.56;;;14.45;100.00
7168;BME280;3625;51.762;14.320;2023-07-31T00:49:26;100287.81;;;14.36;100.00
7168;BME280;3625;51.762;14.320;2023-07-31T00:51:57;100295.72;;;14.40;100.00
7168;BME280;3625;51.762;14.320;2023-07-31T00:54:25;100296.63;;;14.39;100.00
7168;BME280;3625;51.762;14.320;2023-07-31T00:56:57;100298.31;;;14.41;100.00
7168;BME280;3625;51.762;14.320;2023-07-31T00:59:26;100294.66;;;14.44;100.00
7168;BME280;3625;51.762;14.320;2023-07-31T01:01:56;100296.53;;;14.42;100.00
7168;BME280;3625;51.762;14.320;2023-07-31T01:04:27;100289.47;;;14.41;100.00
7168;BME280;3625;51.762;14.320;2023-07-31T01:07:09;100277.16;;;14.36;100.00
7168;BME280;3625;51.762;14.320;2023-07-31T01:09:48;100283.59;;;14.31;100.00
7168;BME280;3625;51.762;14.320;2023-07-31T01:12:28;100280.28;;;14.26;100.00
7168;BME280;3625;51.762;14.320;2023-07-31T01:15:06;100238.84;;;13.97;100.00
7168;BME280;3625;51.762;14.320;2023-07-31T01:17:39;100272.66;;;14.17;100.00
7168;BME280;3625;51.762;14.320;2023-07-31T01:20:12;100240.59;;;13.98;100.00
7168;BME280;3625;51.762;14.320;2023-07-31T01:23:09;100289.13;;;14.26;100.00
7168;BME280;3625;51.762;14.320;2023-07-31T01:26:05;100288.88;;;14.32;100.00
7168;BME280;3625;51.762;14.320;2023-07-31T01:28:51;100266.97;;;14.26;100.00
7168;BME280;3625;51.762;14.320;2023-07-31T01:31:25;100273.28;;;14.45;100.00
7168;BME280;3625;51.762;14.320;2023-07-31T01:34:00;100284.38;;;14.56;100.00
7168;BME280;3625;51.762;14.320;2023-07-31T01:36:30;100283.19;;;14.63;100.00
7168;BME280;3625;51.762;14.320;2023-07-31T01:38:59;100288.28;;;14.69;100.00
7168;BME280;3625;51.762;14.320;2023-07-31T01:41:29;100278.16;;;14.78;100.00
7168;BME280;3625;51.762;14.320;2023-07-31T01:43:58;100259.56;;;14.76;100.00
7168;BME280;3625;51.762;14.320;2023-07-31T01:46:28;100276.63;;;14.92;100.00
7168;BME280;3625;51.762;14.320;2023-07-31T01:48:57;100274.56;;;14.99;100.00
7168;BME280;3625;51.762;14.320;2023-07-31T01:51:25;100272.50;;;15.05;100.00
7168;BME280;3625;51.762;14.320;2023-07-31T01:53:54;100260.78;;;15.09;100.00
7168;BME280;3625;51.762;14.320;2023-07-31T01:56:22;100255.25;;;15.14;100.00
7168;BME280;3625;51.762;14.320;2023-07-31T01:58:52;100245.31;;;15.18;100.00
7168;BME280;3625;51.762;14.320;2023-07-31T02:01:23;100242.53;;;15.21;100.00
7168;BME280;3625;51.762;14.320;2023-07-31T02:03:52;100235.19;;;15.26;100.00
7168;BME280;3625;51.762;14.320;2023-07-31T02:06:22;100239.44;;;15.30;100.00
7168;BME280;3625;51.762;14.320;2023-07-31T02:08:51;100244.63;;;15.33;100.00
7168;BME280;3625;51.762;14.320;2023-07-31T02:11:20;100241.84;;;15.36;100.00
7168;BME280;3625;51.762;14.320;2023-07-31T02:13:51;100239.75;;;15.42;100.00
7168;BME280;3625;51.762;14.320;2023-07-31T02:16:20;100237.03;;;15.44;100.00
7168;BME280;3625;51.762;14.320;2023-07-31T02:18:49;100242.34;;;15.44;100.00
7168;BME280;3625;51.762;14.320;2023-07-31T02:21:17;100242.22;;;15.47;100.00
7168;BME280;3625;51.762;14.320;2023-07-31T02:23:46;100246.59;;;15.48;100.00
7168;BME280;3625;51.762;14.320;2023-07-31T02:26:15;100248.19;;;15.52;100.00
7168;BME280;3625;51.762;14.320;2023-07-31T02:28:44;100228.59;;;15.53;100.00
7168;BME280;3625;51.762;14.320;2023-07-31T02:31:14;100234.34;;;15.64;100.00
7168;BME280;3625;51.762;14.320;2023-07-31T02:33:42;100236.78;;;15.69;100.00
7168;BME280;3625;51.762;14.320;2023-07-31T02:36:11;100244.59;;;15.73;100.00
7168;BME280;3625;51.762;14.320;2023-07-31T02:38:40;100221.34;;;15.75;100.00
7168;BME280;3625;51.762;14.320;2023-07-31T02:41:09;100221.28;;;15.77;100.00
7168;BME280;3625;51.762;14.320;2023-07-31T02:43:40;100220.34;;;15.78;100.00
7168;BME280;3625;51.762;14.320;2023-07-31T02:46:10;100216.00;;;15.75;100.00
7168;BME280;3625;51.762;14.320;2023-07-31T02:48:40;100214.38;;;15.73;100.00
7168;BME280;3625;51.762;14.320;2023-07-31T02:51:09;100213.00;;;15.64;100.00
7168;BME280;3625;51.762;14.320;2023-07-31T02:53:37;100211.53;;;15.57;100.00
7168;BME280;3625;51.762;14.320;2023-07-31T02:56:06;100215.31;;;15.52;100.00
7168;BME280;3625;51.762;14.320;2023-07-31T02:58:35;100203.88;;;15.49;100.00
7168;BME280;3625;51.762;14.320;2023-07-31T03:01:06;100206.53;;;15.49;100.00
7168;BME280;3625;51.762;14.320;2023-07-31T03:03:36;100218.94;;;15.51;100.00
7168;BME280;3625;51.762;14.320;2023-07-31T03:06:06;100210.00;;;15.52;100.00
7168;BME280;3625;51.762;14.320;2023-07-31T03:08:36;100215.31;;;15.52;100.00
7168;BME280;3625;51.762;14.320;2023-07-31T03:11:05;100138.16;;;15.11;100.00
7168;BME280;3625;51.762;14.320;2023-07-31T03:13:34;100215.41;;;15.50;100.00
7168;BME280;3625;51.762;14.320;2023-07-31T03:16:03;100213.03;;;15.44;100.00
7168;BME280;3625;51.762;14.320;2023-07-31T03:18:32;100204.28;;;15.40;100.00
7168;BME280;3625;51.762;14.320;2023-07-31T03:21:03;100221.31;;;15.38;100.00
7168;BME280;3625;51.762;14.320;2023-07-31T03:23:33;100218.78;;;15.35;100.00
7168;BME280;3625;51.762;14.320;2023-07-31T03:26:07;100220.63;;;15.33;100.00
7168;BME280;3625;51.762;14.320;2023-07-31T03:28:36;100224.38;;;15.29;100.00
7168;BME280;3625;51.762;14.320;2023-07-31T03:31:05;100184.66;;;15.04;100.00
7168;BME280;3625;51.762;14.320;2023-07-31T03:33:36;100219.19;;;15.26;100.00
7168;BME280;3625;51.762;14.320;2023-07-31T03:36:05;100225.25;;;15.29;100.00
7168;BME280;3625;51.762;14.320;2023-07-31T03:38:39;100224.03;;;15.36;100.00
7168;BME280;3625;51.762;14.320;2023-07-31T03:41:07;100232.63;;;15.43;100.00
7168;BME280;3625;51.762;14.320;2023-07-31T03:43:38;100227.09;;;15.47;100.00
7168;BME280;3625;51.762;14.320;2023-07-31T03:46:06;100231.25;;;15.53;100.00
7168;BME280;3625;51.762;14.320;2023-07-31T03:48:35;100229.22;;;15.60;100.00
7168;BME280;3625;51.762;14.320;2023-07-31T03:51:04;100230.66;;;15.67;100.00
7168;BME280;3625;51.762;14.320;2023-07-31T03:53:33;100193.19;;;15.49;100.00
7168;BME280;3625;51.762;14.320;2023-07-31T03:56:03;100227.03;;;15.87;100.00
7168;BME280;3625;51.762;14.320;2023-07-31T03:58:31;100223.81;;;15.99;100.00
7168;BME280;3625;51.762;14.320;2023-07-31T04:01:00;100096.97;;;15.37;100.00
7168;BME280;3625;51.762;14.320;2023-07-31T04:03:29;100225.28;;;16.23;100.00
7168;BME280;3625;51.762;14.320;2023-07-31T04:05:58;100230.09;;;16.34;100.00
7168;BME280;3625;51.762;14.320;2023-07-31T04:08:27;100221.78;;;16.40;100.00
7168;BME280;3625;51.762;14.320;2023-07-31T04:10:55;100229.38;;;16.47;100.00
7168;BME280;3625;51.762;14.320;2023-07-31T04:13:30;100222.78;;;16.54;100.00
7168;BME280;3625;51.762;14.320;2023-07-31T04:15:58;100221.66;;;16.60;100.00
7168;BME280;3625;51.762;14.320;2023-07-31T04:18:27;100217.88;;;16.64;100.00
7168;BME280;3625;51.762;14.320;2023-07-31T04:20:58;100228.25;;;16.70;100.00
7168;BME280;3625;51.762;14.320;2023-07-31T04:23:29;100226.16;;;16.77;100.00
7168;BME280;3625;51.762;14.320;2023-07-31T04:26:00;100223.00;;;16.86;100.00
7168;BME280;3625;51.762;14.320;2023-07-31T04:28:30;100187.56;;;16.65;100.00
7168;BME280;3625;51.762;14.320;2023-07-31T04:31:00;100228.03;;;16.92;100.00
7168;BME280;3625;51.762;14.320;2023-07-31T04:33:29;100234.91;;;16.96;100.00
7168;BME280;3625;51.762;14.320;2023-07-31T04:35:58;100226.53;;;17.04;100.00
7168;BME280;3625;51.762;14.320;2023-07-31T04:38:27;100224.22;;;17.13;100.00
7168;BME280;3625;51.762;14.320;2023-07-31T04:40:56;100221.22;;;17.19;100.00
7168;BME280;3625;51.762;14.320;2023-07-31T04:43:25;100230.88;;;17.22;100.00
7168;BME280;3625;51.762;14.320;2023-07-31T04:46:06;100226.97;;;17.29;100.00
7168;BME280;3625;51.762;14.320;2023-07-31T04:48:35;100231.03;;;17.36;100.00
7168;BME280;3625;51.762;14.320;2023-07-31T04:51:06;100209.19;;;17.28;100.00
7168;BME280;3625;51.762;14.320;2023-07-31T04:53:34;100232.66;;;17.39;100.00
7168;BME280;3625;51.762;14.320;2023-07-31T04:56:04;100237.31;;;17.35;100.00
7168;BME280;3625;51.762;14.320;2023-07-31T04:58:32;100226.84;;;17.30;100.00
7168;BME280;3625;51.762;14.320;2023-07-31T05:01:02;100234.28;;;17.25;100.00
7168;BME280;3625;51.762;14.320;2023-07-31T05:03:30;100225.06;;;17.14;100.00
7168;BME280;3625;51.762;14.320;2023-07-31T05:06:00;100204.50;;;16.98;100.00
7168;BME280;3625;51.762;14.320;2023-07-31T05:08:29;100223.88;;;17.04;100.00
7168;BME280;3625;51.762;14.320;2023-07-31T05:10:57;100216.00;;;17.01;100.00
7168;BME280;3625;51.762;14.320;2023-07-31T05:13:26;100218.66;;;17.01;100.00
7168;BME280;3625;51.762;14.320;2023-07-31T05:15:55;100214.97;;;17.03;100.00
7168;BME280;3625;51.762;14.320;2023-07-31T05:18:27;100215.19;;;17.16;100.00
7168;BME280;3625;51.762;14.320;2023-07-31T05:20:55;100207.91;;;17.35;100.00
7168;BME280;3625;51.762;14.320;2023-07-31T05:23:24;100204.91;;;17.57;100.00
7168;BME280;3625;51.762;14.320;2023-07-31T05:25:52;100202.53;;;17.84;100.00
7168;BME280;3625;51.762;14.320;2023-07-31T05:28:22;100205.56;;;18.09;100.00
7168;BME280;3625;51.762;14.320;2023-07-31T05:30:51;100203.72;;;18.25;100.00
7168;BME280;3625;51.762;14.320;2023-07-31T05:33:19;100201.63;;;18.46;100.00
7168;BME280;3625;51.762;14.320;2023-07-31T05:35:59;100197.44;;;18.72;100.00
7168;BME280;3625;51.762;14.320;2023-07-31T05:38:31;100191.81;;;18.91;100.00
7168;BME280;3625;51.762;14.320;2023-07-31T05:41:00;100183.41;;;18.97;100.00
7168;BME280;3625;51.762;14.320;2023-07-31T05:43:35;100186.09;;;18.97;100.00
7168;BME280;3625;51.762;14.320;2023-07-31T05:46:04;100186.63;;;18.88;100.00
7168;BME280;3625;51.762;14.320;2023-07-31T05:48:36;100189.78;;;18.80;100.00
7168;BME280;3625;51.762;14.320;2023-07-31T05:51:13;100183.00;;;18.74;100.00
7168;BME280;3625;51.762;14.320;2023-07-31T05:53:57;100182.78;;;18.77;100.00
7168;BME280;3625;51.762;14.320;2023-07-31T05:56:28;100183.88;;;18.89;100.00
7168;BME280;3625;51.762;14.320;2023-07-31T05:59:03;100187.41;;;19.04;100.00
7168;BME280;3625;51.762;14.320;2023-07-31T06:01:32;100151.31;;;18.95;100.00
7168;BME280;3625;51.762;14.320;2023-07-31T06:04:01;100188.19;;;19.20;100.00
7168;BME280;3625;51.762;14.320;2023-07-31T06:06:32;100187.72;;;19.13;100.00
7168;BME280;3625;51.762;14.320;2023-07-31T06:09:00;100173.84;;;19.07;100.00
7168;BME280;3625;51.762;14.320;2023-07-31T06:11:30;100174.00;;;19.04;100.00
7168;BME280;3625;51.762;14.320;2023-07-31T06:14:01;100174.19;;;18.87;100.00
7168;BME280;3625;51.762;14.320;2023-07-31T06:16:30;100178.19;;;18.79;100.00
7168;BME280;3625;51.762;14.320;2023-07-31T06:18:59;100182.44;;;18.83;100.00
7168;BME280;3625;51.762;14.320;2023-07-31T06:21:28;100179.94;;;18.80;100.00
7168;BME280;3625;51.762;14.320;2023-07-31T06:23:58;100180.47;;;18.71;100.00
7168;BME280;3625;51.762;14.320;2023-07-31T06:26:27;100133.53;;;18.50;100.00
7168;BME280;3625;51.762;14.320;2023-07-31T06:28:56;100183.00;;;18.89;100.00
7168;BME280;3625;51.762;14.320;2023-07-31T06:31:24;100175.25;;;18.84;100.00
7168;BME280;3625;51.762;14.320;2023-07-31T06:33:53;100177.03;;;18.69;100.00
7168;BME280;3625;51.762;14.320;2023-07-31T06:36:22;100183.13;;;18.57;100.00
7168;BME280;3625;51.762;14.320;2023-07-31T06:38:51;100181.53;;;18.53;100.00
7168;BME280;3625;51.762;14.320;2023-07-31T06:41:25;100187.69;;;18.55;100.00
7168;BME280;3625;51.762;14.320;2023-07-31T06:43:54;100175.53;;;18.79;100.00
7168;BME280;3625;51.762;14.320;2023-07-31T06:46:26;100177.09;;;18.98;100.00
7168;BME280;3625;51.762;14.320;2023-07-31T06:48:56;100177.47;;;19.06;100.00
7168;BME280;3625;51.762;14.320;2023-07-31T06:51:25;100186.50;;;19.19;100.00
7168;BME280;3625;51.762;14.320;2023-07-31T06:53:53;100179.88;;;19.25;100.00
7168;BME280;3625;51.762;14.320;2023-07-31T06:56:23;100183.13;;;19.30;100.00
7168;BME280;3625;51.762;14.320;2023-07-31T06:58:53;100192.03;;;19.30;100.00
7168;BME280;3625;51.762;14.320;2023-07-31T07:01:22;100184.38;;;19.10;100.00
7168;BME280;3625;51.762;14.320;2023-07-31T07:03:50;100193.16;;;18.98;100.00
7168;BME280;3625;51.762;14.320;2023-07-31T07:06:19;100172.69;;;18.97;100.00
7168;BME280;3625;51.762;14.320;2023-07-31T07:08:49;100157.63;;;18.80;100.00
7168;BME280;3625;51.762;14.320;2023-07-31T07:11:17;100186.38;;;18.92;100.00
7168;BME280;3625;51.762;14.320;2023-07-31T07:13:50;100160.69;;;18.74;100.00
7168;BME280;3625;51.762;14.320;2023-07-31T07:16:22;100185.13;;;18.83;100.00
7168;BME280;3625;51.762;14.320;2023-07-31T07:18:51;100182.03;;;18.75;100.00
7168;BME280;3625;51.762;14.320;2023-07-31T07:21:31;100180.47;;;18.71;100.00
7168;BME280;3625;51.762;14.320;2023-07-31T07:24:05;100189.31;;;18.73;100.00
7168;BME280;3625;51.762;14.320;2023-07-31T07:26:37;100190.53;;;18.68;100.00
7168;BME280;3625;51.762;14.320;2023-07-31T07:29:10;100183.00;;;18.74;100.00
7168;BME280;3625;51.762;14.320;2023-07-31T07:31:44;100175.94;;;19.02;100.00
7168;BME280;3625;51.762;14.320;2023-07-31T07:34:25;100183.13;;;19.44;100.00
7168;BME280;3625;51.762;14.320;2023-07-31T07:37:01;100169.38;;;19.91;100.00
7168;BME280;3625;51.762;14.320;2023-07-31T07:39:33;100175.06;;;20.13;100.00
7168;BME280;3625;51.762;14.320;2023-07-31T07:42:04;100179.13;;;20.06;100.00
7168;BME280;3625;51.762;14.320;2023-07-31T07:44:34;100179.19;;;19.78;100.00
7168;BME280;3625;51.762;14.320;2023-07-31T07:47:03;100175.19;;;19.71;100.00
7168;BME280;3625;51.762;14.320;2023-07-31T07:49:35;100175.28;;;19.69;100.00
7168;BME280;3625;51.762;14.320;2023-07-31T07:52:06;100170.75;;;19.84;100.00
7168;BME280;3625;51.762;14.320;2023-07-31T07:54:36;100166.31;;;19.97;100.00
7168;BME280;3625;51.762;14.320;2023-07-31T07:57:05;100167.75;;;20.15;100.00
7168;BME280;3625;51.762;14.320;2023-07-31T07:59:40;100168.66;;;20.28;100.00
7168;BME280;3625;51.762;14.320;2023-07-31T08:02:16;100176.31;;;20.61;100.00
7168;BME280;3625;51.762;14.320;2023-07-31T08:04:45;100169.44;;;20.70;100.00
7168;BME280;3625;51.762;14.320;2023-07-31T08:07:14;100166.88;;;20.81;100.00
7168;BME280;3625;51.762;14.320;2023-07-31T08:09:43;100171.69;;;20.63;100.00
7168;BME280;3625;51.762;14.320;2023-07-31T08:12:14;100165.03;;;20.29;100.00
7168;BME280;3625;51.762;14.320;2023-07-31T08:14:47;100158.44;;;19.94;100.00
7168;BME280;3625;51.762;14.320;2023-07-31T08:17:16;100171.78;;;19.95;100.00
7168;BME280;3625;51.762;14.320;2023-07-31T08:19:44;100172.47;;;20.12;100.00
7168;BME280;3625;51.762;14.320;2023-07-31T08:22:13;100166.91;;;20.15;100.00
7168;BME280;3625;51.762;14.320;2023-07-31T08:24:45;100173.13;;;20.15;100.00
7168;BME280;3625;51.762;14.320;2023-07-31T08:27:18;100164.59;;;20.23;100.00
7168;BME280;3625;51.762;14.320;2023-07-31T08:29:52;100167.72;;;20.29;100.00
7168;BME280;3625;51.762;14.320;2023-07-31T08:32:28;100168.47;;;20.31;100.00
7168;BME280;3625;51.762;14.320;2023-07-31T08:35:01;100167.41;;;20.34;100.00
7168;BME280;3625;51.762;14.320;2023-07-31T08:37:32;100166.09;;;20.27;100.00
7168;BME280;3625;51.762;14.320;2023-07-31T08:40:05;100176.81;;;20.14;100.00
7168;BME280;3625;51.762;14.320;2023-07-31T08:42:46;100170.16;;;20.20;100.00
7168;BME280;3625;51.762;14.320;2023-07-31T08:45:20;100166.91;;;20.42;100.00
7168;BME280;3625;51.762;14.320;2023-07-31T08:47:53;100172.19;;;20.43;100.00
7168;BME280;3625;51.762;14.320;2023-07-31T08:50:27;100169.19;;;20.48;100.00
7168;BME280;3625;51.762;14.320;2023-07-31T08:52:59;100163.88;;;20.73;100.00
7168;BME280;3625;51.762;14.320;2023-07-31T08:55:29;100150.22;;;20.89;100.00
7168;BME280;3625;51.762;14.320;2023-07-31T08:58:08;100051.56;;;20.51;100.00
7168;BME280;3625;51.762;14.320;2023-07-31T09:00:43;100158.00;;;21.19;100.00
7168;BME280;3625;51.762;14.320;2023-07-31T09:03:18;100156.69;;;21.24;100.00
7168;BME280;3625;51.762;14.320;2023-07-31T09:05:48;100163.66;;;21.39;100.00
7168;BME280;3625;51.762;14.320;2023-07-31T09:08:21;100140.41;;;21.51;100.00
7168;BME280;3625;51.762;14.320;2023-07-31T09:10:50;100159.19;;;21.76;100.00
7168;BME280;3625;51.762;14.320;2023-07-31T09:13:21;100169.84;;;21.78;100.00
7168;BME280;3625;51.762;14.320;2023-07-31T09:15:54;100168.53;;;21.83;100.00
7168;BME280;3625;51.762;14.320;2023-07-31T09:18:30;100160.81;;;21.79;100.00
7168;BME280;3625;51.762;14.320;2023-07-31T09:21:03;100125.53;;;21.82;100.00
7168;BME280;3625;51.762;14.320;2023-07-31T09:23:42;100156.97;;;22.42;100.00
7168;BME280;3625;51.762;14.320;2023-07-31T09:26:30;100163.50;;;22.74;96.01
7168;BME280;3625;51.762;14.320;2023-07-31T09:29:07;100161.41;;;23.35;93.60
7168;BME280;3625;51.762;14.320;2023-07-31T09:31:55;100168.72;;;23.44;89.47
7168;BME280;3625;51.762;14.320;2023-07-31T09:34:38;100114.47;;;23.36;87.29
7168;BME280;3625;51.762;14.320;2023-07-31T09:37:10;100160.06;;;24.06;85.56
7168;BME280;3625;51.762;14.320;2023-07-31T09:39:46;100167.78;;;24.22;83.19
7168;BME280;3625;51.762;14.320;2023-07-31T09:42:26;100165.47;;;24.49;82.72
7168;BME280;3625;51.762;14.320;2023-07-31T09:45:08;100154.31;;;24.42;81.83
7168;BME280;3625;51.762;14.320;2023-07-31T09:47:49;100156.25;;;24.52;81.18
7168;BME280;3625;51.762;14.320;2023-07-31T09:50:20;100149.94;;;24.62;78.05
7168;BME280;3625;51.762;14.320;2023-07-31T09:52:54;100160.44;;;24.13;77.10
7168;BME280;3625;51.762;14.320;2023-07-31T09:55:25;100128.03;;;24.01;75.80
7168;BME280;3625;51.762;14.320;2023-07-31T09:57:57;100136.72;;;24.48;75.64
7168;BME280;3625;51.762;14.320;2023-07-31T10:00:26;100165.03;;;24.97;75.24
7168;BME280;3625;51.762;14.320;2023-07-31T10:02:59;100153.50;;;25.25;72.35
7168;BME280;3625;51.762;14.320;2023-07-31T10:05:34;100152.25;;;25.08;68.13
7168;BME280;3625;51.762;14.320;2023-07-31T10:08:04;100146.25;;;25.05;69.89
7168;BME280;3625;51.762;14.320;2023-07-31T10:10:45;100139.94;;;24.95;69.64
7168;BME280;3625;51.762;14.320;2023-07-31T10:13:14;100144.97;;;24.99;66.90
7168;BME280;3625;51.762;14.320;2023-07-31T10:15:44;100137.81;;;24.98;67.33
7168;BME280;3625;51.762;14.320;2023-07-31T10:18:15;100040.81;;;24.82;66.32
7168;BME280;3625;51.762;14.320;2023-07-31T10:20:46;100144.91;;;25.50;63.41
7168;BME280;3625;51.762;14.320;2023-07-31T10:23:16;100142.13;;;25.31;64.20
7168;BME280;3625;51.762;14.320;2023-07-31T10:25:47;100054.53;;;24.60;63.15
7168;BME280;3625;51.762;14.320;2023-07-31T10:28:33;99888.00;;;23.54;62.92
7168;BME280;3625;51.762;14.320;2023-07-31T10:31:12;100140.94;;;24.82;63.54
7168;BME280;3625;51.762;14.320;2023-07-31T10:33:42;100147.53;;;24.48;63.75
7168;BME280;3625;51.762;14.320;2023-07-31T10:36:18;100143.09;;;23.72;64.61
7168;BME280;3625;51.762;14.320;2023-07-31T10:38:49;100145.28;;;23.11;67.49
7168;BME280;3625;51.762;14.320;2023-07-31T10:41:29;100145.00;;;22.81;68.98
7168;BME280;3625;51.762;14.320;2023-07-31T10:43:59;100151.69;;;22.64;70.28
7168;BME280;3625;51.762;14.320;2023-07-31T10:46:30;100156.09;;;22.30;70.05
7168;BME280;3625;51.762;14.320;2023-07-31T10:49:03;100126.22;;;21.97;72.25
7168;BME280;3625;51.762;14.320;2023-07-31T10:51:35;100152.38;;;22.20;72.90
7168;BME280;3625;51.762;14.320;2023-07-31T10:54:16;100141.22;;;22.59;71.83
7168;BME280;3625;51.762;14.320;2023-07-31T10:56:50;100142.31;;;22.92;70.04
7168;BME280;3625;51.762;14.320;2023-07-31T10:59:26;100124.66;;;23.10;68.23
7168;BME280;3625;51.762;14.320;2023-07-31T11:01:57;100125.44;;;23.57;66.06
7168;BME280;3625;51.762;14.320;2023-07-31T11:04:27;100134.41;;;23.57;65.24
7168;BME280;3625;51.762;14.320;2023-07-31T11:07:02;100067.63;;;23.15;66.29
7168;BME280;3625;51.762;14.320;2023-07-31T11:09:33;100138.94;;;23.35;65.62
7168;BME280;3625;51.762;14.320;2023-07-31T11:12:03;100135.63;;;23.09;67.29
7168;BME280;3625;51.762;14.320;2023-07-31T11:14:34;100004.19;;;22.31;68.00
7168;BME280;3625;51.762;14.320;2023-07-31T11:17:10;100136.09;;;23.14;67.99
7168;BME280;3625;51.762;14.320;2023-07-31T11:19:44;100136.72;;;23.17;68.08
7168;BME280;3625;51.762;14.320;2023-07-31T11:22:15;100131.19;;;23.08;67.45
7168;BME280;3625;51.762;14.320;2023-07-31T11:24:46;100129.31;;;22.86;66.13
7168;BME280;3625;51.762;14.320;2023-07-31T11:27:15;100118.41;;;23.21;66.08
7168;BME280;3625;51.762;14.320;2023-07-31T11:29:44;100126.66;;;23.30;64.11
7168;BME280;3625;51.762;14.320;2023-07-31T11:32:16;100116.81;;;23.63;63.49
7168;BME280;3625;51.762;14.320;2023-07-31T11:34:53;100103.22;;;23.96;63.01
7168;BME280;3625;51.762;14.320;2023-07-31T11:37:23;100074.53;;;24.16;60.85
7168;BME280;3625;51.762;14.320;2023-07-31T11:40:05;100079.47;;;24.64;57.00
7168;BME280;3625;51.762;14.320;2023-07-31T11:42:34;100114.88;;;25.02;56.98
7168;BME280;3625;51.762;14.320;2023-07-31T11:45:07;100103.94;;;25.04;56.75
7168;BME280;3625;51.762;14.320;2023-07-31T11:47:37;100107.72;;;25.22;56.30
7168;BME280;3625;51.762;14.320;2023-07-31T11:50:13;100080.38;;;25.25;55.82
7168;BME280;3625;51.762;14.320;2023-07-31T11:52:46;100112.63;;;25.78;54.33
7168;BME280;3625;51.762;14.320;2023-07-31T11:55:17;100068.25;;;25.79;53.23
7168;BME280;3625;51.762;14.320;2023-07-31T11:57:54;100116.53;;;26.14;50.59
7168;BME280;3625;51.762;14.320;2023-07-31T12:00:25;100106.66;;;25.74;51.30
7168;BME280;3625;51.762;14.320;2023-07-31T12:02:54;100102.78;;;25.37;52.31
7168;BME280;3625;51.762;14.320;2023-07-31T12:05:24;100098.09;;;25.39;53.99
7168;BME280;3625;51.762;14.320;2023-07-31T12:07:54;100090.09;;;25.68;52.12
7168;BME280;3625;51.762;14.320;2023-07-31T12:10:30;100075.56;;;26.07;52.09
7168;BME280;3625;51.762;14.320;2023-07-31T12:13:02;100084.03;;;26.33;50.61
7168;BME280;3625;51.762;14.320;2023-07-31T12:15:40;100084.88;;;26.53;49.46
7168;BME280;3625;51.762;14.320;2023-07-31T12:18:11;100035.66;;;26.28;49.72
7168;BME280;3625;51.762;14.320;2023-07-31T12:20:46;100070.66;;;26.78;48.38
7168;BME280;3625;51.762;14.320;2023-07-31T12:23:17;100072.59;;;26.29;48.08
7168;BME280;3625;51.762;14.320;2023-07-31T12:25:46;100066.97;;;26.79;48.39
7168;BME280;3625;51.762;14.320;2023-07-31T12:28:15;100070.13;;;26.65;47.31
7168;BME280;3625;51.762;14.320;2023-07-31T12:30:45;100071.44;;;26.51;48.16
7168;BME280;3625;51.762;14.320;2023-07-31T12:33:15;100070.16;;;26.07;49.65
7168;BME280;3625;51.762;14.320;2023-07-31T12:35:47;100015.56;;;25.52;50.21
7168;BME280;3625;51.762;14.320;2023-07-31T12:38:16;100047.22;;;25.52;51.38
7168;BME280;3625;51.762;14.320;2023-07-31T12:40:45;100058.91;;;25.03;54.28
7168;BME280;3625;51.762;14.320;2023-07-31T12:43:14;99981.09;;;24.74;54.50
7168;BME280;3625;51.762;14.320;2023-07-31T12:45:42;100049.97;;;25.62;53.42
7168;BME280;3625;51.762;14.320;2023-07-31T12:48:11;100058.16;;;26.00;50.04
7168;BME280;3625;51.762;14.320;2023-07-31T12:50:40;100052.47;;;25.84;50.39
7168;BME280;3625;51.762;14.320;2023-07-31T12:53:10;100059.16;;;25.80;51.21
7168;BME280;3625;51.762;14.320;2023-07-31T12:55:38;100053.28;;;25.65;51.00
7168;BME280;3625;51.762;14.320;2023-07-31T12:58:07;100049.78;;;25.04;52.29
7168;BME280;3625;51.762;14.320;2023-07-31T13:00:38;100049.56;;;25.26;51.65
7168;BME280;3625;51.762;14.320;2023-07-31T13:03:07;100049.06;;;25.51;50.57
7168;BME280;3625;51.762;14.320;2023-07-31T13:05:36;100039.44;;;25.78;50.32
7168;BME280;3625;51.762;14.320;2023-07-31T13:08:05;100032.59;;;26.12;49.83
7168;BME280;3625;51.762;14.320;2023-07-31T13:10:35;100029.34;;;26.18;48.92
7168;BME280;3625;51.762;14.320;2023-07-31T13:13:03;100037.59;;;26.17;49.69
7168;BME280;3625;51.762;14.320;2023-07-31T13:15:32;100029.19;;;25.91;50.07